createdAt,value
2023-01-01T00:00:44.477Z,101316.88
2023-01-01T00:03:11.373Z,101311.59
2023-01-01T00:05:39.274Z,101316.88
2023-01-01T00:08:07.156Z,101306.34
2023-01-01T00:10:34.073Z,101308.06
2023-01-01T00:13:00.958Z,101306.31
2023-01-01T00:15:28.587Z,101301.94
2023-01-01T00:17:56.405Z,101299.28
2023-01-01T00:20:23.547Z,101300.12
2023-01-01T00:22:55.880Z,101302.50
2023-01-01T00:25:24.452Z,101302.44
2023-01-01T00:27:52.289Z,101298.03
2023-01-01T00:30:19.993Z,101292.09
2023-01-01T00:32:56.107Z,101296.38
2023-01-01T00:35:27.160Z,101296.34
2023-01-01T00:37:55.587Z,101292.91
2023-01-01T00:40:23.464Z,101296.03
2023-01-01T00:42:50.691Z,101293.31
2023-01-01T00:45:21.964Z,101300.50
2023-01-01T00:47:51.534Z,101296.97
2023-01-01T00:50:19.033Z,101298.63
2023-01-01T00:52:46.754Z,101297.72
2023-01-01T00:55:13.689Z,101299.75
2023-01-01T00:57:40.773Z,101312.31
2023-01-01T01:00:09.458Z,101302.72
2023-01-01T01:02:36.369Z,101295.13
2023-01-01T01:05:04.943Z,101305.75
2023-01-01T01:07:39.354Z,101301.09
2023-01-01T01:10:07.502Z,101305.56
2023-01-01T01:12:35.561Z,101311.56
2023-01-01T01:15:03.228Z,101302.03
2023-01-01T01:17:30.254Z,101304.37
2023-01-01T01:19:57.252Z,101316.53
2023-01-01T01:22:28.376Z,101318.59
2023-01-01T01:24:56.542Z,101314.34
2023-01-01T01:27:23.765Z,101320.22
2023-01-01T01:29:50.874Z,101320.84
2023-01-01T01:32:17.689Z,101312.13
2023-01-01T01:34:44.550Z,101319.09
2023-01-01T01:37:12.227Z,101304.78
2023-01-01T01:39:40.656Z,101315.47
2023-01-01T01:42:07.850Z,101296.69
2023-01-01T01:44:49.181Z,101298.50
2023-01-01T01:47:37.767Z,101297.84
2023-01-01T01:50:28.150Z,101292.88
2023-01-01T01:53:12.749Z,101297.97
2023-01-01T01:55:53.920Z,101302.19
2023-01-01T01:58:21.346Z,101290.22
2023-01-01T02:00:48.859Z,101297.81
2023-01-01T02:03:22.603Z,101293.72
2023-01-01T02:05:51.737Z,101297.31
2023-01-01T02:08:20.487Z,101286.00
2023-01-01T02:10:47.838Z,101290.31
2023-01-01T02:13:15.185Z,101291.31
2023-01-01T02:15:57.767Z,101291.19
2023-01-01T02:18:28.455Z,101307.87
2023-01-01T02:21:04.804Z,101285.16
2023-01-01T02:23:47.043Z,101300.00
2023-01-01T02:26:39.014Z,101297.28
2023-01-01T02:29:36.576Z,101295.41
2023-01-01T02:32:10.726Z,101301.34
2023-01-01T02:34:47.739Z,101288.34
2023-01-01T02:37:18.871Z,101293.72
2023-01-01T02:39:51.695Z,101289.47
2023-01-01T02:42:21.112Z,101283.28
2023-01-01T02:44:51.975Z,101281.41
2023-01-01T02:47:22.129Z,101285.84
2023-01-01T02:50:01.082Z,101287.47
2023-01-01T02:52:36.211Z,101283.19
2023-01-01T02:55:14.890Z,101272.62
2023-01-01T02:57:46.997Z,101277.00
2023-01-01T03:00:31.953Z,101283.84
2023-01-01T03:03:23.219Z,101286.50
2023-01-01T03:06:11.988Z,101276.94
2023-01-01T03:08:58.755Z,101287.25
2023-01-01T03:11:42.998Z,101282.84
2023-01-01T03:14:18.214Z,101277.78
2023-01-01T03:17:04.310Z,101273.34
2023-01-01T03:19:37.747Z,101277.56
2023-01-01T03:22:29.306Z,101276.66
2023-01-01T03:25:06.884Z,101278.69
2023-01-01T03:27:38.117Z,101278.69
2023-01-01T03:30:10.706Z,101273.13
2023-01-01T03:33:01.421Z,101272.28
2023-01-01T03:35:35.460Z,101276.63
2023-01-01T03:38:06.487Z,101256.81
2023-01-01T03:40:36.787Z,101256.78
2023-01-01T03:43:09.812Z,101261.00
2023-01-01T03:45:42.039Z,101258.28
2023-01-01T03:48:10.300Z,101254.09
2023-01-01T03:51:09.808Z,101256.78
2023-01-01T03:53:42.636Z,101249.91
2023-01-01T03:56:22.898Z,101254.19
2023-01-01T03:59:07.472Z,101254.09
